createdAt,value
2018-08-29T00:00:41.839Z,23.10
2018-08-29T00:01:46.128Z,23.10
2018-08-29T00:02:50.345Z,23.00
2018-08-29T00:03:54.565Z,23.10
2018-08-29T00:04:58.980Z,23.10
2018-08-29T00:06:03.243Z,23.10
2018-08-29T00:07:07.546Z,23.00
2018-08-29T00:08:11.925Z,23.10
2018-08-29T00:09:16.241Z,23.10
2018-08-29T00:10:20.563Z,23.10
2018-08-29T00:11:24.891Z,23.10
2018-08-29T00:12:29.179Z,23.10
2018-08-29T00:13:33.521Z,23.10
2018-08-29T00:14:37.919Z,23.10
2018-08-29T00:15:42.177Z,23.10
2018-08-29T00:16:46.365Z,23.00
2018-08-29T00:17:50.487Z,23.10
2018-08-29T00:18:54.697Z,23.00
2018-08-29T00:19:58.895Z,23.10
2018-08-29T00:21:03.072Z,23.10
2018-08-29T00:22:07.260Z,23.10
2018-08-29T00:23:11.548Z,23.10
2018-08-29T00:24:15.839Z,23.10
2018-08-29T00:25:20.162Z,23.10
2018-08-29T00:26:24.335Z,23.00
2018-08-29T00:27:28.671Z,23.10
2018-08-29T00:28:33.129Z,23.00
2018-08-29T00:29:37.329Z,23.00
2018-08-29T00:30:41.723Z,23.00
2018-08-29T00:31:45.918Z,23.10
2018-08-29T00:32:50.330Z,23.10
2018-08-29T00:33:54.723Z,23.10
2018-08-29T00:34:59.181Z,23.10
2018-08-29T00:36:03.380Z,23.10
2018-08-29T00:37:07.640Z,23.10
2018-08-29T00:38:11.885Z,23.10
2018-08-29T00:39:16.293Z,23.10
2018-08-29T00:40:20.463Z,23.10
2018-08-29T00:41:24.684Z,23.10
2018-08-29T00:42:29.153Z,23.10
2018-08-29T00:43:33.553Z,23.10
2018-08-29T00:44:37.976Z,23.00
2018-08-29T00:45:42.364Z,23.10
2018-08-29T00:46:46.532Z,23.00
2018-08-29T00:47:50.941Z,23.00
2018-08-29T00:48:55.334Z,23.00
2018-08-29T00:49:59.557Z,23.10
2018-08-29T00:51:03.868Z,23.00
2018-08-29T00:52:08.276Z,23.10
2018-08-29T00:53:12.642Z,23.00
2018-08-29T00:54:16.877Z,23.00
2018-08-29T00:55:21.078Z,23.10
2018-08-29T00:56:25.418Z,23.10
2018-08-29T00:57:29.679Z,23.10
2018-08-29T00:58:34.035Z,23.10
2018-08-29T00:59:38.344Z,23.10
2018-08-29T01:00:42.694Z,23.00
2018-08-29T01:01:46.855Z,23.10
2018-08-29T01:02:51.024Z,23.10
2018-08-29T01:03:55.303Z,23.00
2018-08-29T01:04:59.783Z,23.00
2018-08-29T01:06:03.985Z,23.00
2018-08-29T01:07:08.130Z,23.10
2018-08-29T01:08:12.446Z,23.00
2018-08-29T01:09:16.602Z,23.10
2018-08-29T01:10:20.764Z,23.10
2018-08-29T01:11:25.136Z,23.00
2018-08-29T01:12:29.310Z,23.10
2018-08-29T01:13:33.499Z,23.10
2018-08-29T01:14:37.635Z,23.10
2018-08-29T01:15:41.995Z,23.00
2018-08-29T01:16:46.143Z,23.00
2018-08-29T01:17:50.316Z,23.00
2018-08-29T01:18:54.495Z,23.00
2018-08-29T01:19:58.968Z,23.00
2018-08-29T01:21:03.382Z,23.10
2018-08-29T01:22:07.550Z,23.10
2018-08-29T01:23:11.742Z,23.00
2018-08-29T01:24:16.149Z,23.00
2018-08-29T01:25:20.540Z,23.10
2018-08-29T01:26:24.972Z,23.10
2018-08-29T01:27:29.327Z,23.10
2018-08-29T01:28:33.712Z,23.00
2018-08-29T01:29:37.961Z,23.00
2018-08-29T01:30:42.203Z,23.00
2018-08-29T01:31:46.383Z,23.10
2018-08-29T01:32:50.586Z,23.00
2018-08-29T01:33:54.926Z,23.00
2018-08-29T01:34:59.106Z,23.00
2018-08-29T01:36:03.309Z,23.10
2018-08-29T01:37:08.285Z,23.10
2018-08-29T01:38:12.528Z,23.00
2018-08-29T01:39:17.478Z,23.00
2018-08-29T01:40:21.806Z,23.00
2018-08-29T01:41:26.287Z,23.10
2018-08-29T01:42:30.633Z,23.00
2018-08-29T01:43:34.790Z,23.10
2018-08-29T01:44:38.961Z,23.00
2018-08-29T01:45:43.136Z,23.00
2018-08-29T01:46:47.385Z,23.00
2018-08-29T01:47:51.815Z,23.00
2018-08-29T01:48:56.003Z,23.00
2018-08-29T01:50:00.204Z,23.00
2018-08-29T01:51:04.384Z,23.00
2018-08-29T01:52:08.719Z,23.00
2018-08-29T01:53:12.864Z,23.00
2018-08-29T01:54:17.041Z,23.00
2018-08-29T01:55:21.329Z,23.10
2018-08-29T01:56:25.717Z,23.00
2018-08-29T01:57:29.904Z,23.00
2018-08-29T01:58:34.059Z,23.10
2018-08-29T01:59:38.179Z,23.10
2018-08-29T02:00:42.458Z,23.00
2018-08-29T02:01:46.742Z,23.10
2018-08-29T02:02:50.918Z,23.10
2018-08-29T02:03:55.196Z,23.10
2018-08-29T02:04:59.520Z,23.00
2018-08-29T02:06:03.691Z,23.00
2018-08-29T02:07:08.015Z,23.10
2018-08-29T02:08:12.190Z,23.10
2018-08-29T02:09:16.600Z,23.00
2018-08-29T02:10:20.837Z,23.00
2018-08-29T02:11:25.017Z,23.00
2018-08-29T02:12:29.902Z,23.00
2018-08-29T02:13:34.749Z,23.10
2018-08-29T02:14:39.603Z,23.10
2018-08-29T02:15:43.883Z,23.00
2018-08-29T02:16:48.284Z,23.00
2018-08-29T02:17:52.540Z,23.10
2018-08-29T02:18:56.854Z,23.00
2018-08-29T02:20:01.086Z,23.10
2018-08-29T02:21:05.333Z,23.00
2018-08-29T02:22:09.577Z,23.10
2018-08-29T02:23:13.846Z,23.00
2018-08-29T02:24:18.186Z,23.00
2018-08-29T02:25:22.411Z,23.10
2018-08-29T02:26:26.768Z,23.10
2018-08-29T02:27:30.986Z,23.00
2018-08-29T02:28:35.330Z,23.00
2018-08-29T02:29:39.694Z,23.10
2018-08-29T02:30:44.070Z,23.00
2018-08-29T02:31:48.362Z,23.10
2018-08-29T02:32:52.654Z,23.10
2018-08-29T02:33:57.038Z,23.00
2018-08-29T02:35:01.478Z,23.00
2018-08-29T02:36:05.791Z,23.10
2018-08-29T02:37:10.190Z,23.00
2018-08-29T02:38:14.499Z,23.10
2018-08-29T02:39:18.875Z,23.00
2018-08-29T02:40:23.141Z,23.00
2018-08-29T02:41:27.499Z,23.10
2018-08-29T02:42:31.848Z,23.00
2018-08-29T02:43:36.065Z,23.00
2018-08-29T02:44:40.334Z,23.10
2018-08-29T02:45:44.548Z,23.00
2018-08-29T02:46:48.909Z,23.10
2018-08-29T02:47:53.148Z,23.00
2018-08-29T02:48:57.399Z,23.00
2018-08-29T02:50:01.661Z,23.00
2018-08-29T02:51:05.882Z,23.00
2018-08-29T02:52:10.236Z,23.00
2018-08-29T02:53:14.509Z,23.00
2018-08-29T02:54:18.902Z,23.00
2018-08-29T02:55:23.172Z,23.10
2018-08-29T02:56:27.461Z,23.00
2018-08-29T02:57:31.765Z,23.00
2018-08-29T02:58:36.179Z,23.00
2018-08-29T02:59:40.473Z,23.00
2018-08-29T03:00:45.342Z,23.00
2018-08-29T03:01:49.738Z,23.00
2018-08-29T03:02:54.126Z,23.00
2018-08-29T03:03:58.405Z,23.00
2018-08-29T03:05:02.702Z,23.00
2018-08-29T03:06:07.102Z,23.00
2018-08-29T03:07:11.463Z,23.00
2018-08-29T03:08:15.857Z,23.00
2018-08-29T03:09:20.147Z,23.00
2018-08-29T03:10:24.403Z,23.00
2018-08-29T03:11:28.682Z,23.00
2018-08-29T03:12:33.179Z,23.00
2018-08-29T03:13:37.606Z,23.00
2018-08-29T03:14:41.987Z,23.00
2018-08-29T03:15:46.317Z,23.00
2018-08-29T03:16:50.695Z,23.00
2018-08-29T03:17:55.039Z,23.00
2018-08-29T03:18:59.430Z,23.00
2018-08-29T03:20:03.792Z,23.00
2018-08-29T03:21:08.148Z,23.00
2018-08-29T03:22:12.565Z,23.00
2018-08-29T03:23:16.928Z,23.00
2018-08-29T03:24:21.334Z,23.00
2018-08-29T03:25:25.689Z,23.00
2018-08-29T03:26:30.086Z,23.00
2018-08-29T03:27:34.377Z,23.00
2018-08-29T03:28:38.699Z,23.00
2018-08-29T03:29:43.028Z,23.00
2018-08-29T03:30:47.279Z,23.00
2018-08-29T03:31:51.552Z,23.00
2018-08-29T03:32:55.940Z,23.00
2018-08-29T03:34:00.465Z,23.00
2018-08-29T03:35:04.832Z,23.00
2018-08-29T03:36:09.231Z,23.00
2018-08-29T03:37:13.577Z,23.00
2018-08-29T03:38:17.975Z,23.00
2018-08-29T03:39:22.392Z,23.00
2018-08-29T03:40:26.755Z,23.00
2018-08-29T03:41:31.177Z,23.00
2018-08-29T03:42:35.522Z,23.00
2018-08-29T03:43:39.896Z,23.00
2018-08-29T03:44:44.219Z,23.00
2018-08-29T03:45:48.613Z,23.00
2018-08-29T03:46:52.983Z,23.00
2018-08-29T03:49:48.358Z,23.00
2018-08-29T03:50:52.541Z,23.00
2018-08-29T03:51:56.750Z,23.00
2018-08-29T03:53:00.937Z,23.00
2018-08-29T03:54:05.288Z,23.00
2018-08-29T03:55:09.377Z,23.00
2018-08-29T03:56:13.530Z,23.00
2018-08-29T03:57:17.835Z,23.00
2018-08-29T03:58:21.983Z,23.00
2018-08-29T03:59:26.156Z,23.00
2018-08-29T04:00:30.569Z,23.00
2018-08-29T04:01:34.767Z,23.00
2018-08-29T04:02:39.199Z,23.00
2018-08-29T04:03:43.611Z,23.00
2018-08-29T04:04:47.933Z,23.00
2018-08-29T04:05:52.057Z,23.00
2018-08-29T04:06:56.471Z,23.00
2018-08-29T04:08:00.735Z,23.00
2018-08-29T04:09:05.098Z,23.00
2018-08-29T04:10:09.308Z,23.00
2018-08-29T04:11:13.753Z,23.00
2018-08-29T04:12:18.156Z,23.00
2018-08-29T04:13:22.523Z,23.00
2018-08-29T04:14:26.917Z,23.00
2018-08-29T04:15:31.196Z,23.00
2018-08-29T04:16:35.546Z,23.00
2018-08-29T04:17:39.917Z,23.00
2018-08-29T04:18:44.261Z,23.00
2018-08-29T04:19:48.659Z,23.00
2018-08-29T04:20:52.958Z,23.00
2018-08-29T04:21:57.409Z,23.00
2018-08-29T04:23:01.880Z,23.00
2018-08-29T04:24:06.141Z,23.00
2018-08-29T04:25:10.292Z,23.00
2018-08-29T04:26:14.825Z,23.00
2018-08-29T04:27:19.094Z,23.00
2018-08-29T04:28:23.435Z,23.00
2018-08-29T04:29:27.903Z,23.00
2018-08-29T04:30:32.375Z,23.00
2018-08-29T04:31:36.822Z,23.00
2018-08-29T04:32:41.259Z,23.00
2018-08-29T04:33:45.675Z,23.00
2018-08-29T04:34:49.828Z,23.00
2018-08-29T04:35:54.359Z,23.00
2018-08-29T04:36:58.783Z,23.00
2018-08-29T04:38:02.925Z,23.00
2018-08-29T04:39:07.097Z,23.00
2018-08-29T04:40:11.463Z,23.00
2018-08-29T04:41:15.865Z,23.00
2018-08-29T04:42:20.169Z,23.00
2018-08-29T04:43:24.598Z,23.00
2018-08-29T04:44:28.939Z,23.00
2018-08-29T04:45:33.101Z,23.00
2018-08-29T04:46:37.495Z,23.00
2018-08-29T04:47:41.623Z,23.00
2018-08-29T04:48:45.787Z,23.00
2018-08-29T04:49:50.151Z,23.00
2018-08-29T04:50:54.539Z,23.00
2018-08-29T04:51:58.903Z,23.00
2018-08-29T04:53:03.354Z,23.00
2018-08-29T04:54:07.747Z,23.00
2018-08-29T04:55:12.292Z,23.00
2018-08-29T04:56:16.535Z,23.00
2018-08-29T04:57:20.765Z,23.00
2018-08-29T04:58:24.924Z,23.10
2018-08-29T04:59:29.193Z,23.00
2018-08-29T05:00:33.494Z,23.00
2018-08-29T05:01:37.888Z,23.00
2018-08-29T05:02:42.440Z,23.00
2018-08-29T05:03:46.850Z,23.00
2018-08-29T05:04:51.263Z,23.00
2018-08-29T05:05:55.505Z,23.00
2018-08-29T05:06:59.743Z,23.00
2018-08-29T05:08:04.164Z,23.00
2018-08-29T05:09:08.563Z,23.00
2018-08-29T05:10:12.971Z,23.00
2018-08-29T05:11:17.423Z,23.00
2018-08-29T05:12:21.699Z,23.00
2018-08-29T05:13:26.101Z,23.00
2018-08-29T05:14:30.330Z,23.00
2018-08-29T05:15:34.598Z,23.00
2018-08-29T05:16:38.933Z,23.00
2018-08-29T05:17:43.240Z,23.00
2018-08-29T05:18:47.534Z,23.00
2018-08-29T05:19:51.995Z,23.00
2018-08-29T05:20:56.351Z,23.00
2018-08-29T05:22:00.596Z,23.00
2018-08-29T05:23:04.992Z,23.00
2018-08-29T05:24:09.416Z,23.00
2018-08-29T05:25:13.793Z,23.00
2018-08-29T05:26:18.016Z,23.00
2018-08-29T05:27:22.270Z,23.00
2018-08-29T05:28:26.591Z,23.00
2018-08-29T05:29:30.995Z,23.00
2018-08-29T05:30:35.408Z,23.00
2018-08-29T05:31:39.636Z,23.00
2018-08-29T05:32:43.895Z,23.00
2018-08-29T05:33:48.298Z,23.00
2018-08-29T05:34:52.844Z,23.00
2018-08-29T05:35:57.034Z,23.00
2018-08-29T05:37:01.267Z,23.00
2018-08-29T05:38:05.692Z,23.00
2018-08-29T05:39:10.246Z,23.00
2018-08-29T05:40:14.654Z,23.00
2018-08-29T05:41:19.026Z,23.00
2018-08-29T05:42:23.271Z,23.00
2018-08-29T05:43:27.540Z,23.00
2018-08-29T05:44:31.893Z,23.00
2018-08-29T05:45:36.097Z,23.00
2018-08-29T05:46:40.564Z,23.00
2018-08-29T05:47:44.996Z,23.00
2018-08-29T05:48:49.296Z,23.00
2018-08-29T05:49:53.645Z,23.00
2018-08-29T05:50:57.840Z,23.00
2018-08-29T05:52:02.048Z,23.00
2018-08-29T05:53:06.296Z,23.00
2018-08-29T05:54:10.780Z,23.00
2018-08-29T05:55:15.084Z,23.00
2018-08-29T05:56:19.388Z,23.00
2018-08-29T05:57:23.616Z,23.00
2018-08-29T05:58:27.998Z,23.00
2018-08-29T05:59:32.359Z,23.00
2018-08-29T06:00:36.818Z,23.10
2018-08-29T06:01:41.318Z,23.00
2018-08-29T06:02:46.406Z,23.00
2018-08-29T06:03:50.705Z,23.00
2018-08-29T06:04:54.960Z,23.00
2018-08-29T06:05:59.352Z,23.00
2018-08-29T06:07:03.621Z,23.00
2018-08-29T06:08:07.999Z,23.00
2018-08-29T06:09:12.225Z,23.10
2018-08-29T06:10:16.684Z,23.00
2018-08-29T06:11:20.874Z,23.00
2018-08-29T06:12:25.118Z,23.00
2018-08-29T06:13:29.540Z,23.00
2018-08-29T06:14:33.906Z,23.00
2018-08-29T06:15:38.284Z,23.00
2018-08-29T06:16:42.576Z,23.00
2018-08-29T06:17:46.979Z,22.90
2018-08-29T06:18:51.174Z,22.90
2018-08-29T06:19:55.418Z,23.00
2018-08-29T06:20:59.713Z,23.00
2018-08-29T06:22:04.284Z,23.00
2018-08-29T06:23:08.737Z,22.90
2018-08-29T06:24:13.019Z,22.90
2018-08-29T06:25:17.365Z,22.90
2018-08-29T06:26:21.795Z,23.00
2018-08-29T06:27:26.080Z,23.00
2018-08-29T06:28:30.707Z,23.00
2018-08-29T06:29:35.102Z,23.00
2018-08-29T06:30:39.349Z,23.00
2018-08-29T06:31:44.017Z,23.00
2018-08-29T06:32:48.255Z,22.90
2018-08-29T06:33:52.682Z,22.90
2018-08-29T06:34:56.922Z,23.00
2018-08-29T06:36:01.292Z,23.00
2018-08-29T06:37:05.555Z,22.90
2018-08-29T06:38:09.701Z,23.00
2018-08-29T06:39:13.884Z,23.00
2018-08-29T06:40:18.290Z,23.00
2018-08-29T06:41:22.545Z,23.00
2018-08-29T06:42:26.913Z,23.00
2018-08-29T06:43:31.346Z,23.00
2018-08-29T06:44:35.724Z,22.90
2018-08-29T06:45:39.951Z,23.00
2018-08-29T06:46:44.132Z,23.00
2018-08-29T06:47:48.534Z,23.00
2018-08-29T06:48:53.064Z,23.00
2018-08-29T06:49:57.483Z,23.00
2018-08-29T06:51:01.763Z,23.00
2018-08-29T06:52:06.112Z,23.00
2018-08-29T06:53:10.473Z,23.00
2018-08-29T06:54:14.679Z,23.00
2018-08-29T06:55:18.907Z,23.00
2018-08-29T06:56:23.445Z,23.00
2018-08-29T06:57:27.894Z,23.00
2018-08-29T06:58:32.261Z,23.00
2018-08-29T06:59:36.452Z,23.00
2018-08-29T07:00:40.895Z,23.00
2018-08-29T07:01:45.304Z,23.00
2018-08-29T07:02:49.781Z,23.00
2018-08-29T07:03:54.239Z,23.00
2018-08-29T07:04:58.701Z,23.00
2018-08-29T07:06:02.997Z,23.00
2018-08-29T07:07:07.278Z,23.00
2018-08-29T07:08:11.625Z,23.00
2018-08-29T07:09:16.200Z,23.00
2018-08-29T07:10:20.655Z,23.00
2018-08-29T07:11:24.961Z,23.00
2018-08-29T07:12:29.511Z,23.00
2018-08-29T07:13:33.889Z,23.00
2018-08-29T07:14:38.154Z,23.00
2018-08-29T07:15:42.554Z,23.00
2018-08-29T07:16:46.842Z,23.00
2018-08-29T07:17:51.112Z,23.00
2018-08-29T07:18:55.388Z,23.00
2018-08-29T07:19:59.774Z,23.00
2018-08-29T07:21:04.291Z,23.00
2018-08-29T07:22:08.646Z,23.00
2018-08-29T07:23:12.905Z,23.00
2018-08-29T07:24:17.609Z,23.00
2018-08-29T07:25:21.923Z,23.00
2018-08-29T07:25:34.663Z,23.00
2018-08-29T07:26:39.040Z,23.00
2018-08-29T07:27:43.249Z,23.00
2018-08-29T07:28:47.474Z,23.00
2018-08-29T07:29:52.079Z,23.00
2018-08-29T07:30:56.378Z,23.00
2018-08-29T07:32:00.799Z,23.00
2018-08-29T07:33:05.110Z,23.00
2018-08-29T07:34:09.617Z,23.00
2018-08-29T07:35:13.932Z,23.00
2018-08-29T07:36:18.459Z,23.00
2018-08-29T07:37:22.684Z,23.00
2018-08-29T07:38:26.992Z,23.00
2018-08-29T07:39:31.569Z,23.00
2018-08-29T07:40:35.851Z,23.00
2018-08-29T07:41:40.122Z,23.00
2018-08-29T07:42:44.558Z,23.00
2018-08-29T07:43:48.933Z,23.00
2018-08-29T07:44:53.500Z,23.00
2018-08-29T07:45:57.914Z,23.00
2018-08-29T07:47:02.331Z,23.00
2018-08-29T07:48:06.789Z,23.00
2018-08-29T07:49:11.168Z,23.00
2018-08-29T07:50:15.487Z,23.00
2018-08-29T07:51:19.834Z,23.00
2018-08-29T07:52:24.267Z,23.00
2018-08-29T07:53:28.479Z,23.00
2018-08-29T07:54:32.965Z,23.00
2018-08-29T07:55:37.394Z,23.00
2018-08-29T07:56:41.609Z,23.00
2018-08-29T07:57:46.172Z,23.10
2018-08-29T07:58:50.361Z,23.00
2018-08-29T07:59:54.774Z,23.00
2018-08-29T08:00:59.199Z,23.00
2018-08-29T08:02:03.579Z,23.00
2018-08-29T08:03:08.036Z,23.00
2018-08-29T08:04:12.157Z,23.00
2018-08-29T08:05:16.377Z,23.10
2018-08-29T08:06:20.791Z,23.00
2018-08-29T08:07:25.091Z,23.00
2018-08-29T08:08:29.578Z,23.00
2018-08-29T08:09:33.564Z,23.00
2018-08-29T08:10:37.857Z,23.00
2018-08-29T08:11:42.005Z,23.00
2018-08-29T08:12:46.200Z,23.10
2018-08-29T08:13:50.461Z,23.10
2018-08-29T08:14:54.897Z,23.10
2018-08-29T08:15:06.758Z,23.10
2018-08-29T08:16:11.081Z,23.00
2018-08-29T08:17:15.514Z,23.10
2018-08-29T08:18:19.674Z,23.10
2018-08-29T08:19:23.891Z,23.00
2018-08-29T08:20:28.130Z,23.00
2018-08-29T08:21:32.875Z,23.00
2018-08-29T08:22:37.119Z,23.10
2018-08-29T08:23:45.670Z,23.00
2018-08-29T08:24:49.948Z,23.10
2018-08-29T08:25:55.836Z,23.10
2018-08-29T08:27:00.050Z,23.10
2018-08-29T08:28:04.365Z,23.10
2018-08-29T08:29:11.200Z,23.10
2018-08-29T08:30:15.511Z,23.10
2018-08-29T08:31:19.934Z,23.10
2018-08-29T08:32:24.406Z,23.10
2018-08-29T08:33:28.614Z,23.10
2018-08-29T08:34:32.991Z,23.10
2018-08-29T08:35:37.763Z,23.10
2018-08-29T08:36:43.172Z,23.10
2018-08-29T08:37:47.389Z,23.10
2018-08-29T08:38:51.610Z,23.10
2018-08-29T08:39:56.149Z,23.10
2018-08-29T08:41:00.478Z,23.10
2018-08-29T08:42:04.766Z,23.10
2018-08-29T08:43:09.099Z,23.10
2018-08-29T08:44:13.383Z,23.10
2018-08-29T08:45:17.773Z,23.10
2018-08-29T08:46:22.415Z,23.10
2018-08-29T08:47:26.858Z,23.10
2018-08-29T08:48:31.480Z,23.10
2018-08-29T08:49:36.130Z,23.10
2018-08-29T08:50:40.295Z,23.10
2018-08-29T08:51:44.506Z,23.10
2018-08-29T08:52:48.705Z,23.00
2018-08-29T08:53:52.923Z,23.10
2018-08-29T08:54:57.308Z,23.00
2018-08-29T08:56:01.617Z,23.00
2018-08-29T08:57:05.774Z,23.10
2018-08-29T08:58:09.944Z,23.10
2018-08-29T08:59:14.355Z,23.00
2018-08-29T09:00:18.755Z,23.10
2018-08-29T09:01:23.154Z,23.00
2018-08-29T09:02:27.574Z,23.10
2018-08-29T09:03:31.752Z,23.10
2018-08-29T09:04:36.012Z,23.10
2018-08-29T09:05:40.418Z,23.10
2018-08-29T09:06:45.017Z,23.10
2018-08-29T09:07:49.187Z,23.10
2018-08-29T09:08:53.649Z,23.10
2018-08-29T09:09:57.921Z,23.10
2018-08-29T09:11:02.316Z,23.10
2018-08-29T09:12:06.591Z,23.10
2018-08-29T09:13:10.772Z,23.10
2018-08-29T09:14:15.347Z,23.10
2018-08-29T09:15:19.538Z,23.10
2018-08-29T09:16:24.028Z,23.20
2018-08-29T09:17:28.446Z,23.20
2018-08-29T09:18:32.672Z,23.10
2018-08-29T09:19:37.135Z,23.20
2018-08-29T09:20:41.597Z,23.20
2018-08-29T09:21:45.809Z,23.20
2018-08-29T09:22:50.235Z,23.10
2018-08-29T09:23:54.701Z,23.20
2018-08-29T09:24:59.104Z,23.10
2018-08-29T09:26:03.527Z,23.20
2018-08-29T09:27:07.980Z,23.20
2018-08-29T09:28:12.197Z,23.10
2018-08-29T09:29:16.652Z,23.10
2018-08-29T09:30:21.093Z,23.10
2018-08-29T09:31:25.562Z,23.10
2018-08-29T09:32:30.050Z,23.10
2018-08-29T09:33:34.464Z,23.10
2018-08-29T09:34:38.887Z,23.10
2018-08-29T09:35:43.336Z,23.10
2018-08-29T09:36:47.816Z,23.10
2018-08-29T09:37:52.063Z,23.10
2018-08-29T09:38:56.485Z,23.10
2018-08-29T09:40:00.910Z,23.10
2018-08-29T09:41:05.269Z,23.10
2018-08-29T09:42:09.635Z,23.20
2018-08-29T09:43:13.884Z,23.20
2018-08-29T09:44:18.251Z,23.20
2018-08-29T09:45:22.519Z,23.20
2018-08-29T09:46:26.778Z,23.20
2018-08-29T09:47:30.937Z,23.20
2018-08-29T09:48:35.355Z,23.20
2018-08-29T09:49:39.664Z,23.20
2018-08-29T09:50:43.870Z,23.20
2018-08-29T09:51:48.261Z,23.20
2018-08-29T09:52:52.565Z,23.20
2018-08-29T09:53:56.838Z,23.20
2018-08-29T09:55:00.976Z,23.20
2018-08-29T09:56:05.235Z,23.30
2018-08-29T09:57:09.622Z,23.20
2018-08-29T09:58:13.860Z,23.20
2018-08-29T09:59:18.147Z,23.30
2018-08-29T10:00:22.344Z,23.30
2018-08-29T10:01:26.837Z,23.30
2018-08-29T10:02:31.045Z,23.30
2018-08-29T10:03:35.473Z,23.30
2018-08-29T10:04:40.051Z,23.20
2018-08-29T10:05:44.274Z,23.30
2018-08-29T10:06:48.672Z,23.20
2018-08-29T10:07:52.862Z,23.20
2018-08-29T10:08:57.335Z,23.30
2018-08-29T10:10:02.042Z,23.30
2018-08-29T10:11:06.284Z,23.30
2018-08-29T10:12:10.596Z,23.30
2018-08-29T10:13:15.034Z,23.20
2018-08-29T10:14:19.237Z,23.20
2018-08-29T10:15:23.635Z,23.20
2018-08-29T10:16:27.982Z,23.20
2018-08-29T10:17:32.442Z,23.20
2018-08-29T10:18:36.628Z,23.20
2018-08-29T10:19:40.775Z,23.20
2018-08-29T10:20:45.181Z,23.20
2018-08-29T10:21:49.550Z,23.20
2018-08-29T10:22:53.787Z,23.20
2018-08-29T10:23:57.996Z,23.20
2018-08-29T10:25:02.472Z,23.30
2018-08-29T10:26:06.809Z,23.30
2018-08-29T10:27:11.168Z,23.30
2018-08-29T10:28:15.599Z,23.30
2018-08-29T10:29:20.183Z,23.30
2018-08-29T10:30:24.449Z,23.30
2018-08-29T10:31:28.803Z,23.30
2018-08-29T10:32:32.992Z,23.30
2018-08-29T10:33:37.152Z,23.30
2018-08-29T10:34:41.441Z,23.30
2018-08-29T10:35:45.893Z,23.30
2018-08-29T10:36:50.127Z,23.20
2018-08-29T10:37:54.526Z,23.20
2018-08-29T10:38:58.802Z,23.20
2018-08-29T10:40:02.981Z,23.20
2018-08-29T10:41:07.349Z,23.30
2018-08-29T10:42:11.622Z,23.30
2018-08-29T10:43:15.882Z,23.30
2018-08-29T10:44:20.287Z,23.30
2018-08-29T10:45:24.736Z,23.30
2018-08-29T10:46:29.230Z,23.30
2018-08-29T10:47:33.523Z,23.30
2018-08-29T10:48:37.736Z,23.30
2018-08-29T10:49:41.956Z,23.30
2018-08-29T10:50:46.129Z,23.30
2018-08-29T10:51:50.453Z,23.30
2018-08-29T10:52:54.859Z,23.30
2018-08-29T10:53:59.243Z,23.30
2018-08-29T10:55:03.831Z,23.30
2018-08-29T10:56:08.168Z,23.30
2018-08-29T10:57:12.639Z,23.30
2018-08-29T10:58:17.039Z,23.30
2018-08-29T10:59:21.439Z,23.30
2018-08-29T11:00:25.679Z,23.30
2018-08-29T11:01:29.953Z,23.30
2018-08-29T11:02:34.392Z,23.30
2018-08-29T11:03:38.776Z,23.30
2018-08-29T11:04:43.132Z,23.40
2018-08-29T11:05:47.318Z,23.40
2018-08-29T11:06:51.847Z,23.30
2018-08-29T11:07:56.502Z,23.30
2018-08-29T11:09:00.935Z,23.30
2018-08-29T11:10:05.152Z,23.30
2018-08-29T11:11:09.584Z,23.30
2018-08-29T11:12:14.002Z,23.30
2018-08-29T11:13:18.374Z,23.30
2018-08-29T11:14:22.549Z,23.30
2018-08-29T11:15:26.739Z,23.30
2018-08-29T11:16:31.272Z,23.30
2018-08-29T11:17:35.635Z,23.40
2018-08-29T11:18:40.134Z,23.30
2018-08-29T11:19:44.486Z,23.40
2018-08-29T11:20:48.629Z,23.40
2018-08-29T11:21:53.052Z,23.30
2018-08-29T11:22:57.440Z,23.30
2018-08-29T11:24:01.656Z,23.40
2018-08-29T11:25:05.955Z,23.30
2018-08-29T11:26:10.381Z,23.30
2018-08-29T11:27:14.825Z,23.30
2018-08-29T11:28:19.311Z,23.30
2018-08-29T11:29:23.634Z,23.30
2018-08-29T11:30:28.011Z,23.30
2018-08-29T11:31:32.322Z,23.30
2018-08-29T11:32:36.622Z,23.30
2018-08-29T11:33:41.067Z,23.30
2018-08-29T11:34:45.499Z,23.30
2018-08-29T11:35:49.910Z,23.30
2018-08-29T11:36:54.369Z,23.40
2018-08-29T11:37:58.601Z,23.30
2018-08-29T11:39:03.016Z,23.40
2018-08-29T11:40:07.356Z,23.40
2018-08-29T11:41:11.735Z,23.40
2018-08-29T11:42:16.014Z,23.40
2018-08-29T11:43:20.305Z,23.40
2018-08-29T11:44:24.552Z,23.40
2018-08-29T11:45:28.773Z,23.40
2018-08-29T11:46:32.967Z,23.40
2018-08-29T11:47:37.255Z,23.40
2018-08-29T11:48:41.565Z,23.40
2018-08-29T11:48:53.582Z,23.40
2018-08-29T11:49:57.944Z,23.40
2018-08-29T11:51:02.191Z,23.40
2018-08-29T11:52:06.413Z,23.40
2018-08-29T11:53:10.725Z,23.40
2018-08-29T11:54:15.114Z,23.40
2018-08-29T11:55:19.326Z,23.40
2018-08-29T11:56:23.633Z,23.40
2018-08-29T11:57:27.868Z,23.40
2018-08-29T11:58:32.290Z,23.40
2018-08-29T11:59:36.654Z,23.40
2018-08-29T12:00:41.093Z,23.40
2018-08-29T12:01:45.334Z,23.40
2018-08-29T12:02:49.678Z,23.40
2018-08-29T12:03:54.288Z,23.40
2018-08-29T12:04:58.666Z,23.40
2018-08-29T12:06:02.976Z,23.40
2018-08-29T12:07:07.136Z,23.40
2018-08-29T12:08:11.356Z,23.40
2018-08-29T12:09:15.826Z,23.40
2018-08-29T12:10:20.157Z,23.40
2018-08-29T12:11:24.456Z,23.40
2018-08-29T12:12:28.827Z,23.40
2018-08-29T12:13:33.110Z,23.40
2018-08-29T12:14:37.488Z,23.30
2018-08-29T12:15:41.861Z,23.40
2018-08-29T12:16:46.442Z,23.40
2018-08-29T12:17:50.631Z,23.40
2018-08-29T12:18:55.148Z,23.40
2018-08-29T12:19:59.357Z,23.40
2018-08-29T12:21:03.596Z,23.50
2018-08-29T12:22:07.970Z,23.40
2018-08-29T12:23:12.450Z,23.40
2018-08-29T12:24:16.805Z,23.40
2018-08-29T12:25:20.996Z,23.50
2018-08-29T12:26:25.382Z,23.50
2018-08-29T12:27:29.698Z,23.40
2018-08-29T12:28:34.120Z,23.40
2018-08-29T12:29:38.345Z,23.40
2018-08-29T12:30:42.582Z,23.40
2018-08-29T12:31:46.858Z,23.40
2018-08-29T12:32:51.206Z,23.40
2018-08-29T12:33:55.692Z,23.40
2018-08-29T12:34:59.902Z,23.40
2018-08-29T12:36:04.449Z,23.40
2018-08-29T12:37:08.801Z,23.50
2018-08-29T12:38:13.205Z,23.50
2018-08-29T12:39:17.559Z,23.50
2018-08-29T12:40:21.976Z,23.50
2018-08-29T12:41:26.193Z,23.40
2018-08-29T12:42:30.557Z,23.50
2018-08-29T12:43:35.120Z,23.40
2018-08-29T12:44:39.524Z,23.50
2018-08-29T12:45:43.763Z,23.50
2018-08-29T12:46:47.988Z,23.50
2018-08-29T12:47:52.443Z,23.50
2018-08-29T12:48:56.817Z,23.50
2018-08-29T12:50:01.063Z,23.50
2018-08-29T12:51:05.307Z,23.40
2018-08-29T12:52:09.659Z,23.40
2018-08-29T12:53:14.130Z,23.40
2018-08-29T12:54:18.335Z,23.50
2018-08-29T12:55:22.564Z,23.50
2018-08-29T12:56:26.713Z,23.40
2018-08-29T12:57:31.172Z,23.50
2018-08-29T12:58:35.581Z,23.50
2018-08-29T12:59:39.814Z,23.50
2018-08-29T13:00:44.424Z,23.50
2018-08-29T13:01:48.707Z,23.50
2018-08-29T13:02:52.928Z,23.50
2018-08-29T13:03:57.354Z,23.50
2018-08-29T13:05:01.522Z,23.50
2018-08-29T13:06:05.835Z,23.50
2018-08-29T13:07:10.082Z,23.50
2018-08-29T13:08:14.422Z,23.50
2018-08-29T13:09:18.593Z,23.40
2018-08-29T13:10:22.854Z,23.50
2018-08-29T13:11:27.267Z,23.50
2018-08-29T13:12:31.663Z,23.50
2018-08-29T13:13:36.060Z,23.50
2018-08-29T13:14:40.530Z,23.50
2018-08-29T13:15:44.897Z,23.50
2018-08-29T13:16:49.098Z,23.50
2018-08-29T13:17:53.306Z,23.50
2018-08-29T13:18:57.540Z,23.50
2018-08-29T13:20:01.738Z,23.50
2018-08-29T13:21:05.977Z,23.50
2018-08-29T13:22:10.390Z,23.50
2018-08-29T13:23:14.764Z,23.50
2018-08-29T13:24:19.138Z,23.50
2018-08-29T13:25:23.449Z,23.50
2018-08-29T13:26:27.627Z,23.60
2018-08-29T13:27:32.002Z,23.50
2018-08-29T13:28:36.501Z,23.50
2018-08-29T13:29:40.777Z,23.50
2018-08-29T13:30:45.097Z,23.50
2018-08-29T13:31:49.309Z,23.50
2018-08-29T13:32:53.666Z,23.50
2018-08-29T13:33:57.955Z,23.60
2018-08-29T13:35:02.470Z,23.60
2018-08-29T13:36:06.729Z,23.60
2018-08-29T13:37:11.283Z,23.60
2018-08-29T13:38:15.887Z,23.50
2018-08-29T13:39:20.275Z,23.50
2018-08-29T13:40:24.628Z,23.50
2018-08-29T13:41:28.967Z,23.50
2018-08-29T13:42:33.359Z,23.60
2018-08-29T13:43:37.654Z,23.50
2018-08-29T13:44:42.065Z,23.50
2018-08-29T13:45:46.389Z,23.50
2018-08-29T13:46:50.675Z,23.50
2018-08-29T13:47:55.095Z,23.60